sensor_id;sensor_type;location;lat;lon;timestamp;P1;durP1;ratioP1;P2;durP2;ratioP2
77495;SDS011;66600;48.378;9.948;2024-01-15T00:00:10;23.90;;;10.75;;
77495;SDS011;66600;48.378;9.948;2024-01-15T00:00:40;25.92;;;11.32;;
77495;SDS011;66600;48.378;9.948;2024-01-15T00:01:11;21.85;;;10.60;;
77495;SDS011;66600;48.378;9.948;2024-01-15T00:01:44;25.10;;;11.35;;
77495;SDS011;66600;48.378;9.948;2024-01-15T00:02:14;20.70;;;9.65;;
77495;SDS011;66600;48.378;9.948;2024-01-15T00:02:45;23.08;;;9.23;;
77495;SDS011;66600;48.378;9.948;2024-01-15T00:03:17;24.73;;;11.75;;
77495;SDS011;66600;48.378;9.948;2024-01-15T00:03:47;20.77;;;9.95;;
77495;SDS011;66600;48.378;9.948;2024-01-15T00:04:17;23.60;;;10.27;;
77495;SDS011;66600;48.378;9.948;2024-01-15T00:04:48;24.52;;;11.52;;
77495;SDS011;66600;48.378;9.948;2024-01-15T00:05:18;19.70;;;9.93;;
77495;SDS011;66600;48.378;9.948;2024-01-15T00:05:48;22.05;;;11.30;;
77495;SDS011;66600;48.378;9.948;2024-01-15T00:06:19;22.27;;;10.57;;
77495;SDS011;66600;48.378;9.948;2024-01-15T00:06:50;21.05;;;10.57;;
77495;SDS011;66600;48.378;9.948;2024-01-15T00:07:20;20.02;;;10.07;;
77495;SDS011;66600;48.378;9.948;2024-01-15T00:07:51;21.92;;;9.80;;
77495;SDS011;66600;48.378;9.948;2024-01-15T00:08:21;20.75;;;10.45;;
77495;SDS011;66600;48.378;9.948;2024-01-15T00:08:51;24.08;;;11.38;;
77495;SDS011;66600;48.378;9.948;2024-01-15T00:09:22;21.63;;;10.70;;
77495;SDS011;66600;48.378;9.948;2024-01-15T00:09:52;24.02;;;10.73;;
77495;SDS011;66600;48.378;9.948;2024-01-15T00:10:23;23.45;;;11.18;;
77495;SDS011;66600;48.378;9.948;2024-01-15T00:10:53;22.90;;;10.93;;
77495;SDS011;66600;48.378;9.948;2024-01-15T00:11:23;21.77;;;11.15;;
77495;SDS011;66600;48.378;9.948;2024-01-15T00:11:54;22.33;;;11.27;;
77495;SDS011;66600;48.378;9.948;2024-01-15T00:12:24;23.13;;;12.15;;
77495;SDS011;66600;48.378;9.948;2024-01-15T00:12:54;23.45;;;10.68;;
77495;SDS011;66600;48.378;9.948;2024-01-15T00:13:25;23.95;;;10.75;;
77495;SDS011;66600;48.378;9.948;2024-01-15T00:13:55;19.05;;;9.90;;
77495;SDS011;66600;48.378;9.948;2024-01-15T00:14:25;24.30;;;11.52;;
77495;SDS011;66600;48.378;9.948;2024-01-15T00:14:56;22.45;;;11.23;;
77495;SDS011;66600;48.378;9.948;2024-01-15T00:15:26;23.40;;;11.05;;
77495;SDS011;66600;48.378;9.948;2024-01-15T00:15:58;22.88;;;12.10;;
77495;SDS011;66600;48.378;9.948;2024-01-15T00:16:28;22.95;;;11.30;;
77495;SDS011;66600;48.378;9.948;2024-01-15T00:16:59;22.23;;;11.65;;
77495;SDS011;66600;48.378;9.948;2024-01-15T00:17:29;22.35;;;11.02;;
77495;SDS011;66600;48.378;9.948;2024-01-15T00:17:59;21.98;;;11.05;;
77495;SDS011;66600;48.378;9.948;2024-01-15T00:18:30;24.05;;;10.88;;
77495;SDS011;66600;48.378;9.948;2024-01-15T00:19:00;21.90;;;11.02;;
77495;SDS011;66600;48.378;9.948;2024-01-15T00:19:30;23.25;;;11.52;;
77495;SDS011;66600;48.378;9.948;2024-01-15T00:20:02;22.50;;;11.10;;
77495;SDS011;66600;48.378;9.948;2024-01-15T00:20:33;23.27;;;10.82;;
77495;SDS011;66600;48.378;9.948;2024-01-15T00:21:04;23.42;;;10.50;;
77495;SDS011;66600;48.378;9.948;2024-01-15T00:21:34;17.52;;;8.80;;
77495;SDS011;66600;48.378;9.948;2024-01-15T00:22:04;21.98;;;11.13;;
77495;SDS011;66600;48.378;9.948;2024-01-15T00:22:35;21.20;;;10.38;;
77495;SDS011;66600;48.378;9.948;2024-01-15T00:23:05;23.45;;;11.73;;
77495;SDS011;66600;48.378;9.948;2024-01-15T00:23:36;22.63;;;11.43;;
77495;SDS011;66600;48.378;9.948;2024-01-15T00:24:06;26.20;;;11.48;;
77495;SDS011;66600;48.378;9.948;2024-01-15T00:24:36;25.17;;;11.25;;
77495;SDS011;66600;48.378;9.948;2024-01-15T00:25:07;23.02;;;11.02;;
77495;SDS011;66600;48.378;9.948;2024-01-15T00:25:37;21.20;;;11.10;;
77495;SDS011;66600;48.378;9.948;2024-01-15T00:26:07;21.40;;;10.88;;
77495;SDS011;66600;48.378;9.948;2024-01-15T00:26:38;23.92;;;11.10;;
77495;SDS011;66600;48.378;9.948;2024-01-15T00:27:08;22.83;;;10.35;;
77495;SDS011;66600;48.378;9.948;2024-01-15T00:27:38;23.73;;;11.25;;
77495;SDS011;66600;48.378;9.948;2024-01-15T00:28:09;21.85;;;11.10;;
77495;SDS011;66600;48.378;9.948;2024-01-15T00:28:39;22.15;;;10.20;;
77495;SDS011;66600;48.378;9.948;2024-01-15T00:29:09;20.35;;;10.25;;
77495;SDS011;66600;48.378;9.948;2024-01-15T00:29:40;23.02;;;10.23;;
77495;SDS011;66600;48.378;9.948;2024-01-15T00:30:10;21.40;;;10.73;;
77495;SDS011;66600;48.378;9.948;2024-01-15T00:30:41;24.10;;;10.88;;
77495;SDS011;66600;48.378;9.948;2024-01-15T00:31:11;23.38;;;10.98;;
77495;SDS011;66600;48.378;9.948;2024-01-15T00:31:42;22.33;;;10.60;;
77495;SDS011;66600;48.378;9.948;2024-01-15T00:32:12;21.48;;;9.45;;
77495;SDS011;66600;48.378;9.948;2024-01-15T00:32:42;22.45;;;11.40;;
77495;SDS011;66600;48.378;9.948;2024-01-15T00:33:13;23.90;;;10.98;;
77495;SDS011;66600;48.378;9.948;2024-01-15T00:33:44;22.60;;;10.23;;
77495;SDS011;66600;48.378;9.948;2024-01-15T00:34:15;23.35;;;10.52;;
77495;SDS011;66600;48.378;9.948;2024-01-15T00:34:46;23.27;;;9.93;;
77495;SDS011;66600;48.378;9.948;2024-01-15T00:35:16;22.77;;;11.00;;
77495;SDS011;66600;48.378;9.948;2024-01-15T00:35:47;21.50;;;9.32;;
77495;SDS011;66600;48.378;9.948;2024-01-15T00:36:17;21.05;;;10.43;;
77495;SDS011;66600;48.378;9.948;2024-01-15T00:36:47;21.38;;;10.57;;
77495;SDS011;66600;48.378;9.948;2024-01-15T00:37:18;20.02;;;10.38;;
77495;SDS011;66600;48.378;9.948;2024-01-15T00:37:48;21.73;;;10.52;;
77495;SDS011;66600;48.378;9.948;2024-01-15T00:38:19;19.92;;;9.98;;
77495;SDS011;66600;48.378;9.948;2024-01-15T00:38:50;21.75;;;9.90;;
77495;SDS011;66600;48.378;9.948;2024-01-15T00:39:21;22.40;;;10.63;;
77495;SDS011;66600;48.378;9.948;2024-01-15T00:39:51;22.52;;;10.65;;
77495;SDS011;66600;48.378;9.948;2024-01-15T00:40:22;22.83;;;10.88;;
77495;SDS011;66600;48.378;9.948;2024-01-15T00:40:52;22.10;;;10.40;;
77495;SDS011;66600;48.378;9.948;2024-01-15T00:41:23;23.35;;;10.18;;
77495;SDS011;66600;48.378;9.948;2024-01-15T00:41:53;24.73;;;11.13;;
77495;SDS011;66600;48.378;9.948;2024-01-15T00:42:23;22.58;;;10.95;;
77495;SDS011;66600;48.378;9.948;2024-01-15T00:42:54;18.98;;;9.43;;
77495;SDS011;66600;48.378;9.948;2024-01-15T00:43:24;21.52;;;10.85;;
77495;SDS011;66600;48.378;9.948;2024-01-15T00:43:54;20.35;;;9.95;;
77495;SDS011;66600;48.378;9.948;2024-01-15T00:44:25;21.38;;;10.13;;
77495;SDS011;66600;48.378;9.948;2024-01-15T00:44:55;20.77;;;10.23;;
77495;SDS011;66600;48.378;9.948;2024-01-15T00:45:25;21.30;;;10.57;;
77495;SDS011;66600;48.378;9.948;2024-01-15T00:45:56;19.88;;;10.75;;
77495;SDS011;66600;48.378;9.948;2024-01-15T00:46:26;23.58;;;11.45;;
77495;SDS011;66600;48.378;9.948;2024-01-15T00:46:56;22.63;;;10.02;;
77495;SDS011;66600;48.378;9.948;2024-01-15T00:47:27;20.70;;;10.82;;
77495;SDS011;66600;48.378;9.948;2024-01-15T00:47:57;25.90;;;11.60;;
77495;SDS011;66600;48.378;9.948;2024-01-15T00:48:29;22.15;;;11.05;;
77495;SDS011;66600;48.378;9.948;2024-01-15T00:49:00;21.95;;;10.55;;
77495;SDS011;66600;48.378;9.948;2024-01-15T00:49:30;19.90;;;10.02;;
77495;SDS011;66600;48.378;9.948;2024-01-15T00:50:00;20.98;;;10.43;;
77495;SDS011;66600;48.378;9.948;2024-01-15T00:50:31;22.98;;;11.27;;
77495;SDS011;66600;48.378;9.948;2024-01-15T00:51:01;23.20;;;10.90;;
77495;SDS011;66600;48.378;9.948;2024-01-15T00:51:32;18.00;;;10.00;;
77495;SDS011;66600;48.378;9.948;2024-01-15T00:52:02;22.85;;;10.40;;
77495;SDS011;66600;48.378;9.948;2024-01-15T00:52:32;22.05;;;10.52;;
77495;SDS011;66600;48.378;9.948;2024-01-15T00:53:03;22.75;;;11.10;;
77495;SDS011;66600;48.378;9.948;2024-01-15T00:53:33;21.80;;;11.35;;
77495;SDS011;66600;48.378;9.948;2024-01-15T00:54:04;20.27;;;10.63;;
77495;SDS011;66600;48.378;9.948;2024-01-15T00:54:34;21.67;;;10.48;;
77495;SDS011;66600;48.378;9.948;2024-01-15T00:55:05;22.88;;;10.55;;
77495;SDS011;66600;48.378;9.948;2024-01-15T00:55:36;22.92;;;10.82;;
77495;SDS011;66600;48.378;9.948;2024-01-15T00:56:07;21.13;;;10.27;;
77495;SDS011;66600;48.378;9.948;2024-01-15T00:56:38;22.23;;;11.07;;
77495;SDS011;66600;48.378;9.948;2024-01-15T00:57:08;19.33;;;10.32;;
77495;SDS011;66600;48.378;9.948;2024-01-15T00:57:39;20.65;;;10.23;;
77495;SDS011;66600;48.378;9.948;2024-01-15T00:58:09;21.65;;;10.25;;
77495;SDS011;66600;48.378;9.948;2024-01-15T00:58:40;21.13;;;10.40;;
77495;SDS011;66600;48.378;9.948;2024-01-15T00:59:10;20.25;;;10.20;;
77495;SDS011;66600;48.378;9.948;2024-01-15T00:59:44;19.65;;;9.90;;
77495;SDS011;66600;48.378;9.948;2024-01-15T01:00:15;22.88;;;10.73;;
77495;SDS011;66600;48.378;9.948;2024-01-15T01:00:46;19.95;;;10.15;;
77495;SDS011;66600;48.378;9.948;2024-01-15T01:01:16;22.13;;;10.00;;
77495;SDS011;66600;48.378;9.948;2024-01-15T01:01:46;20.33;;;9.75;;
77495;SDS011;66600;48.378;9.948;2024-01-15T01:02:17;19.58;;;9.63;;
77495;SDS011;66600;48.378;9.948;2024-01-15T01:02:47;21.73;;;10.10;;
77495;SDS011;66600;48.378;9.948;2024-01-15T01:03:18;19.35;;;10.10;;
77495;SDS011;66600;48.378;9.948;2024-01-15T01:03:48;22.10;;;10.48;;
77495;SDS011;66600;48.378;9.948;2024-01-15T01:04:18;19.88;;;9.73;;
77495;SDS011;66600;48.378;9.948;2024-01-15T01:04:49;21.60;;;10.52;;
77495;SDS011;66600;48.378;9.948;2024-01-15T01:05:19;21.77;;;10.18;;
77495;SDS011;66600;48.378;9.948;2024-01-15T01:05:50;20.13;;;10.32;;
77495;SDS011;66600;48.378;9.948;2024-01-15T01:06:20;24.10;;;10.40;;
77495;SDS011;66600;48.378;9.948;2024-01-15T01:06:50;18.48;;;9.70;;
77495;SDS011;66600;48.378;9.948;2024-01-15T01:07:21;21.88;;;10.48;;
77495;SDS011;66600;48.378;9.948;2024-01-15T01:07:51;20.08;;;10.18;;
77495;SDS011;66600;48.378;9.948;2024-01-15T01:08:21;19.58;;;9.27;;
77495;SDS011;66600;48.378;9.948;2024-01-15T01:08:52;23.55;;;10.15;;
77495;SDS011;66600;48.378;9.948;2024-01-15T01:09:22;18.88;;;8.95;;
77495;SDS011;66600;48.378;9.948;2024-01-15T01:09:52;17.65;;;9.60;;
77495;SDS011;66600;48.378;9.948;2024-01-15T01:10:23;19.52;;;9.23;;
77495;SDS011;66600;48.378;9.948;2024-01-15T01:10:53;20.73;;;9.05;;
77495;SDS011;66600;48.378;9.948;2024-01-15T01:11:25;15.82;;;6.70;;
77495;SDS011;66600;48.378;9.948;2024-01-15T01:11:56;14.40;;;6.90;;
77495;SDS011;66600;48.378;9.948;2024-01-15T01:12:27;14.77;;;7.20;;
77495;SDS011;66600;48.378;9.948;2024-01-15T01:12:57;14.65;;;6.53;;
77495;SDS011;66600;48.378;9.948;2024-01-15T01:13:27;15.77;;;6.90;;
77495;SDS011;66600;48.378;9.948;2024-01-15T01:13:58;15.20;;;7.32;;
77495;SDS011;66600;48.378;9.948;2024-01-15T01:14:28;13.15;;;5.93;;
77495;SDS011;66600;48.378;9.948;2024-01-15T01:14:58;15.02;;;6.63;;
77495;SDS011;66600;48.378;9.948;2024-01-15T01:15:29;13.68;;;6.30;;
77495;SDS011;66600;48.378;9.948;2024-01-15T01:15:59;15.80;;;7.22;;
77495;SDS011;66600;48.378;9.948;2024-01-15T01:16:29;14.10;;;6.60;;
77495;SDS011;66600;48.378;9.948;2024-01-15T01:17:01;13.27;;;6.47;;
77495;SDS011;66600;48.378;9.948;2024-01-15T01:17:32;12.40;;;6.15;;
77495;SDS011;66600;48.378;9.948;2024-01-15T01:18:02;12.88;;;6.50;;
77495;SDS011;66600;48.378;9.948;2024-01-15T01:18:33;13.57;;;6.25;;
77495;SDS011;66600;48.378;9.948;2024-01-15T01:19:05;12.38;;;6.00;;
77495;SDS011;66600;48.378;9.948;2024-01-15T01:19:36;13.95;;;6.43;;
77495;SDS011;66600;48.378;9.948;2024-01-15T01:20:07;11.32;;;5.63;;
77495;SDS011;66600;48.378;9.948;2024-01-15T01:20:39;10.45;;;5.50;;
77495;SDS011;66600;48.378;9.948;2024-01-15T01:21:09;13.85;;;6.05;;
77495;SDS011;66600;48.378;9.948;2024-01-15T01:21:39;13.80;;;6.22;;
77495;SDS011;66600;48.378;9.948;2024-01-15T01:22:10;12.32;;;5.80;;
77495;SDS011;66600;48.378;9.948;2024-01-15T01:22:40;13.23;;;6.57;;
77495;SDS011;66600;48.378;9.948;2024-01-15T01:23:11;13.23;;;6.28;;
77495;SDS011;66600;48.378;9.948;2024-01-15T01:23:42;12.48;;;6.22;;
77495;SDS011;66600;48.378;9.948;2024-01-15T01:24:12;13.88;;;5.88;;
77495;SDS011;66600;48.378;9.948;2024-01-15T01:24:43;13.18;;;5.03;;
77495;SDS011;66600;48.378;9.948;2024-01-15T01:25:13;9.27;;;4.78;;
77495;SDS011;66600;48.378;9.948;2024-01-15T01:25:43;11.77;;;5.40;;
77495;SDS011;66600;48.378;9.948;2024-01-15T01:26:15;9.90;;;4.85;;
77495;SDS011;66600;48.378;9.948;2024-01-15T01:26:46;13.52;;;6.35;;
77495;SDS011;66600;48.378;9.948;2024-01-15T01:27:16;12.35;;;5.45;;
77495;SDS011;66600;48.378;9.948;2024-01-15T01:27:47;9.77;;;5.00;;
77495;SDS011;66600;48.378;9.948;2024-01-15T01:28:17;11.27;;;5.43;;
77495;SDS011;66600;48.378;9.948;2024-01-15T01:28:47;13.93;;;5.45;;
77495;SDS011;66600;48.378;9.948;2024-01-15T01:29:18;12.00;;;5.15;;
77495;SDS011;66600;48.378;9.948;2024-01-15T01:29:48;13.52;;;6.18;;
77495;SDS011;66600;48.378;9.948;2024-01-15T01:30:18;10.77;;;5.53;;
77495;SDS011;66600;48.378;9.948;2024-01-15T01:30:49;13.50;;;6.60;;
77495;SDS011;66600;48.378;9.948;2024-01-15T01:31:19;11.85;;;5.97;;
77495;SDS011;66600;48.378;9.948;2024-01-15T01:31:50;13.00;;;6.32;;
77495;SDS011;66600;48.378;9.948;2024-01-15T01:32:20;13.07;;;5.90;;
77495;SDS011;66600;48.378;9.948;2024-01-15T01:32:50;12.18;;;6.13;;
77495;SDS011;66600;48.378;9.948;2024-01-15T01:33:20;16.33;;;6.78;;
77495;SDS011;66600;48.378;9.948;2024-01-15T01:33:51;15.30;;;7.00;;
77495;SDS011;66600;48.378;9.948;2024-01-15T01:34:21;13.00;;;6.30;;
77495;SDS011;66600;48.378;9.948;2024-01-15T01:34:52;15.55;;;7.50;;
77495;SDS011;66600;48.378;9.948;2024-01-15T01:35:22;16.25;;;7.60;;
77495;SDS011;66600;48.378;9.948;2024-01-15T01:35:53;13.93;;;6.35;;
77495;SDS011;66600;48.378;9.948;2024-01-15T01:36:23;16.63;;;7.30;;
77495;SDS011;66600;48.378;9.948;2024-01-15T01:36:53;13.82;;;6.25;;
77495;SDS011;66600;48.378;9.948;2024-01-15T01:37:24;14.05;;;6.80;;
77495;SDS011;66600;48.378;9.948;2024-01-15T01:37:54;14.00;;;7.15;;
77495;SDS011;66600;48.378;9.948;2024-01-15T01:38:25;16.13;;;7.28;;
77495;SDS011;66600;48.378;9.948;2024-01-15T01:38:55;14.90;;;6.35;;
77495;SDS011;66600;48.378;9.948;2024-01-15T01:39:25;15.60;;;6.60;;
77495;SDS011;66600;48.378;9.948;2024-01-15T01:39:56;18.67;;;8.23;;
77495;SDS011;66600;48.378;9.948;2024-01-15T01:40:26;15.77;;;7.00;;
77495;SDS011;66600;48.378;9.948;2024-01-15T01:40:56;17.90;;;8.13;;
77495;SDS011;66600;48.378;9.948;2024-01-15T01:41:27;15.60;;;7.55;;
77495;SDS011;66600;48.378;9.948;2024-01-15T01:41:57;15.00;;;7.45;;
77495;SDS011;66600;48.378;9.948;2024-01-15T01:42:27;14.68;;;7.70;;
77495;SDS011;66600;48.378;9.948;2024-01-15T01:42:58;16.55;;;8.05;;
77495;SDS011;66600;48.378;9.948;2024-01-15T01:43:28;18.48;;;8.48;;
77495;SDS011;66600;48.378;9.948;2024-01-15T01:43:58;18.38;;;8.23;;
77495;SDS011;66600;48.378;9.948;2024-01-15T01:44:29;15.95;;;7.75;;
77495;SDS011;66600;48.378;9.948;2024-01-15T01:44:59;16.83;;;7.93;;
77495;SDS011;66600;48.378;9.948;2024-01-15T01:45:30;16.27;;;7.82;;
77495;SDS011;66600;48.378;9.948;2024-01-15T01:46:01;15.10;;;7.03;;
77495;SDS011;66600;48.378;9.948;2024-01-15T01:46:33;15.52;;;7.30;;
77495;SDS011;66600;48.378;9.948;2024-01-15T01:47:04;18.13;;;8.30;;
77495;SDS011;66600;48.378;9.948;2024-01-15T01:47:35;18.20;;;8.15;;
77495;SDS011;66600;48.378;9.948;2024-01-15T01:48:06;15.98;;;7.88;;
77495;SDS011;66600;48.378;9.948;2024-01-15T01:48:37;18.08;;;8.40;;
77495;SDS011;66600;48.378;9.948;2024-01-15T01:49:07;15.15;;;7.55;;
77495;SDS011;66600;48.378;9.948;2024-01-15T01:49:39;17.15;;;7.88;;
77495;SDS011;66600;48.378;9.948;2024-01-15T01:50:10;17.52;;;8.30;;
77495;SDS011;66600;48.378;9.948;2024-01-15T01:50:41;15.70;;;7.80;;
77495;SDS011;66600;48.378;9.948;2024-01-15T01:51:12;17.15;;;7.88;;
77495;SDS011;66600;48.378;9.948;2024-01-15T01:51:43;18.50;;;8.85;;
77495;SDS011;66600;48.378;9.948;2024-01-15T01:52:14;16.70;;;7.38;;
77495;SDS011;66600;48.378;9.948;2024-01-15T01:52:45;16.08;;;8.43;;
77495;SDS011;66600;48.378;9.948;2024-01-15T01:53:15;18.00;;;8.65;;
77495;SDS011;66600;48.378;9.948;2024-01-15T01:53:46;16.45;;;8.43;;
77495;SDS011;66600;48.378;9.948;2024-01-15T01:54:16;17.80;;;9.05;;
77495;SDS011;66600;48.378;9.948;2024-01-15T01:54:49;17.27;;;8.27;;
77495;SDS011;66600;48.378;9.948;2024-01-15T01:55:21;18.98;;;8.00;;
77495;SDS011;66600;48.378;9.948;2024-01-15T01:55:56;17.73;;;8.63;;
77495;SDS011;66600;48.378;9.948;2024-01-15T01:56:27;18.00;;;8.70;;
77495;SDS011;66600;48.378;9.948;2024-01-15T01:56:58;19.95;;;8.73;;
77495;SDS011;66600;48.378;9.948;2024-01-15T01:57:29;17.75;;;8.00;;
77495;SDS011;66600;48.378;9.948;2024-01-15T01:58:00;16.80;;;8.38;;
77495;SDS011;66600;48.378;9.948;2024-01-15T01:58:32;19.67;;;9.05;;
77495;SDS011;66600;48.378;9.948;2024-01-15T01:59:03;17.80;;;8.85;;
77495;SDS011;66600;48.378;9.948;2024-01-15T01:59:34;19.30;;;8.70;;
77495;SDS011;66600;48.378;9.948;2024-01-15T02:00:06;17.33;;;8.45;;
77495;SDS011;66600;48.378;9.948;2024-01-15T02:00:39;16.70;;;8.25;;
77495;SDS011;66600;48.378;9.948;2024-01-15T02:01:11;18.42;;;8.85;;
77495;SDS011;66600;48.378;9.948;2024-01-15T02:01:42;17.35;;;7.97;;
77495;SDS011;66600;48.378;9.948;2024-01-15T02:02:14;19.92;;;9.23;;
77495;SDS011;66600;48.378;9.948;2024-01-15T02:02:45;19.52;;;8.75;;
77495;SDS011;66600;48.378;9.948;2024-01-15T02:03:16;22.77;;;9.48;;
77495;SDS011;66600;48.378;9.948;2024-01-15T02:03:46;17.65;;;9.18;;
77495;SDS011;66600;48.378;9.948;2024-01-15T02:04:16;20.60;;;8.75;;
77495;SDS011;66600;48.378;9.948;2024-01-15T02:04:47;20.23;;;9.45;;
77495;SDS011;66600;48.378;9.948;2024-01-15T02:05:19;18.83;;;9.23;;
77495;SDS011;66600;48.378;9.948;2024-01-15T02:05:52;17.27;;;8.00;;
77495;SDS011;66600;48.378;9.948;2024-01-15T02:06:23;17.33;;;8.55;;
77495;SDS011;66600;48.378;9.948;2024-01-15T02:06:54;18.98;;;8.90;;
77495;SDS011;66600;48.378;9.948;2024-01-15T02:07:24;17.80;;;8.75;;
77495;SDS011;66600;48.378;9.948;2024-01-15T02:07:55;17.13;;;8.60;;
77495;SDS011;66600;48.378;9.948;2024-01-15T02:08:26;17.30;;;8.70;;
77495;SDS011;66600;48.378;9.948;2024-01-15T02:08:57;21.08;;;8.85;;
77495;SDS011;66600;48.378;9.948;2024-01-15T02:09:27;20.00;;;9.35;;
77495;SDS011;66600;48.378;9.948;2024-01-15T02:09:58;16.88;;;7.90;;
77495;SDS011;66600;48.378;9.948;2024-01-15T02:10:28;18.58;;;8.60;;
77495;SDS011;66600;48.378;9.948;2024-01-15T02:10:58;21.27;;;8.77;;
77495;SDS011;66600;48.378;9.948;2024-01-15T02:11:29;20.00;;;8.75;;
77495;SDS011;66600;48.378;9.948;2024-01-15T02:11:59;18.08;;;8.70;;
77495;SDS011;66600;48.378;9.948;2024-01-15T02:12:30;15.82;;;7.88;;
77495;SDS011;66600;48.378;9.948;2024-01-15T02:13:00;17.25;;;8.32;;
77495;SDS011;66600;48.378;9.948;2024-01-15T02:13:31;15.93;;;8.18;;
77495;SDS011;66600;48.378;9.948;2024-01-15T02:14:01;18.15;;;8.30;;
77495;SDS011;66600;48.378;9.948;2024-01-15T02:14:32;16.20;;;8.70;;
77495;SDS011;66600;48.378;9.948;2024-01-15T02:15:03;20.55;;;9.25;;
77495;SDS011;66600;48.378;9.948;2024-01-15T02:15:34;17.23;;;8.20;;
77495;SDS011;66600;48.378;9.948;2024-01-15T02:16:04;15.63;;;7.85;;
77495;SDS011;66600;48.378;9.948;2024-01-15T02:16:34;18.63;;;8.82;;
77495;SDS011;66600;48.378;9.948;2024-01-15T02:17:05;18.38;;;8.40;;
77495;SDS011;66600;48.378;9.948;2024-01-15T02:17:55;17.75;;;8.73;;
77495;SDS011;66600;48.378;9.948;2024-01-15T02:18:44;19.30;;;8.38;;
77495;SDS011;66600;48.378;9.948;2024-01-15T02:19:17;19.85;;;9.05;;
77495;SDS011;66600;48.378;9.948;2024-01-15T02:19:47;17.55;;;8.65;;
77495;SDS011;66600;48.378;9.948;2024-01-15T02:20:19;19.63;;;8.50;;
77495;SDS011;66600;48.378;9.948;2024-01-15T02:20:50;16.88;;;8.20;;
77495;SDS011;66600;48.378;9.948;2024-01-15T02:21:20;16.13;;;7.30;;
77495;SDS011;66600;48.378;9.948;2024-01-15T02:21:50;18.08;;;8.35;;
77495;SDS011;66600;48.378;9.948;2024-01-15T02:22:21;16.75;;;8.05;;
77495;SDS011;66600;48.378;9.948;2024-01-15T02:22:51;14.93;;;7.50;;
77495;SDS011;66600;48.378;9.948;2024-01-15T02:23:22;17.35;;;8.30;;
77495;SDS011;66600;48.378;9.948;2024-01-15T02:23:52;18.73;;;9.02;;
77495;SDS011;66600;48.378;9.948;2024-01-15T02:24:22;18.08;;;8.15;;
77495;SDS011;66600;48.378;9.948;2024-01-15T02:24:53;15.77;;;7.85;;
77495;SDS011;66600;48.378;9.948;2024-01-15T02:25:23;17.70;;;8.60;;
77495;SDS011;66600;48.378;9.948;2024-01-15T02:25:53;17.73;;;7.97;;
77495;SDS011;66600;48.378;9.948;2024-01-15T02:26:24;18.80;;;8.25;;
77495;SDS011;66600;48.378;9.948;2024-01-15T02:26:54;16.80;;;8.85;;
77495;SDS011;66600;48.378;9.948;2024-01-15T02:27:25;18.13;;;9.00;;
77495;SDS011;66600;48.378;9.948;2024-01-15T02:27:55;17.73;;;8.70;;
77495;SDS011;66600;48.378;9.948;2024-01-15T02:28:26;17.02;;;8.20;;
77495;SDS011;66600;48.378;9.948;2024-01-15T02:28:56;16.48;;;8.43;;
77495;SDS011;66600;48.378;9.948;2024-01-15T02:29:26;17.80;;;8.73;;
77495;SDS011;66600;48.378;9.948;2024-01-15T02:29:57;19.88;;;8.18;;
77495;SDS011;66600;48.378;9.948;2024-01-15T02:30:27;20.02;;;8.93;;
77495;SDS011;66600;48.378;9.948;2024-01-15T02:30:59;18.00;;;8.70;;
77495;SDS011;66600;48.378;9.948;2024-01-15T02:31:29;18.00;;;7.97;;
77495;SDS011;66600;48.378;9.948;2024-01-15T02:32:03;19.50;;;8.75;;
77495;SDS011;66600;48.378;9.948;2024-01-15T02:32:34;20.20;;;8.48;;
77495;SDS011;66600;48.378;9.948;2024-01-15T02:33:05;20.45;;;8.93;;
77495;SDS011;66600;48.378;9.948;2024-01-15T02:33:36;18.10;;;7.88;;
77495;SDS011;66600;48.378;9.948;2024-01-15T02:34:06;21.58;;;9.63;;
77495;SDS011;66600;48.378;9.948;2024-01-15T02:34:37;16.42;;;8.20;;
77495;SDS011;66600;48.378;9.948;2024-01-15T02:35:07;17.73;;;8.50;;
77495;SDS011;66600;48.378;9.948;2024-01-15T02:35:37;17.75;;;9.25;;
77495;SDS011;66600;48.378;9.948;2024-01-15T02:36:08;18.52;;;8.95;;
77495;SDS011;66600;48.378;9.948;2024-01-15T02:36:39;20.67;;;8.88;;
77495;SDS011;66600;48.378;9.948;2024-01-15T02:37:09;17.58;;;8.63;;
77495;SDS011;66600;48.378;9.948;2024-01-15T02:37:40;21.10;;;8.73;;
77495;SDS011;66600;48.378;9.948;2024-01-15T02:38:10;16.70;;;8.25;;
77495;SDS011;66600;48.378;9.948;2024-01-15T02:38:41;16.98;;;7.97;;
77495;SDS011;66600;48.378;9.948;2024-01-15T02:39:11;19.63;;;9.00;;
77495;SDS011;66600;48.378;9.948;2024-01-15T02:39:42;18.17;;;8.48;;
77495;SDS011;66600;48.378;9.948;2024-01-15T02:40:12;15.55;;;7.82;;
77495;SDS011;66600;48.378;9.948;2024-01-15T02:40:43;18.42;;;8.40;;
77495;SDS011;66600;48.378;9.948;2024-01-15T02:41:14;16.98;;;7.90;;
77495;SDS011;66600;48.378;9.948;2024-01-15T02:41:45;18.08;;;8.40;;
77495;SDS011;66600;48.378;9.948;2024-01-15T02:42:15;17.88;;;8.80;;
77495;SDS011;66600;48.378;9.948;2024-01-15T02:42:45;20.40;;;8.98;;
77495;SDS011;66600;48.378;9.948;2024-01-15T02:43:16;17.15;;;8.90;;
77495;SDS011;66600;48.378;9.948;2024-01-15T02:43:46;20.00;;;9.18;;
77495;SDS011;66600;48.378;9.948;2024-01-15T02:44:16;18.63;;;9.07;;
77495;SDS011;66600;48.378;9.948;2024-01-15T02:44:47;17.25;;;8.65;;
77495;SDS011;66600;48.378;9.948;2024-01-15T02:45:19;16.73;;;8.55;;
77495;SDS011;66600;48.378;9.948;2024-01-15T02:45:49;18.70;;;8.82;;
77495;SDS011;66600;48.378;9.948;2024-01-15T02:46:20;17.42;;;8.32;;
77495;SDS011;66600;48.378;9.948;2024-01-15T02:46:50;17.85;;;8.43;;
77495;SDS011;66600;48.378;9.948;2024-01-15T02:47:20;18.17;;;8.70;;
77495;SDS011;66600;48.378;9.948;2024-01-15T02:47:51;19.20;;;8.90;;
77495;SDS011;66600;48.378;9.948;2024-01-15T02:48:21;18.02;;;8.27;;
77495;SDS011;66600;48.378;9.948;2024-01-15T02:48:51;15.30;;;7.93;;
77495;SDS011;66600;48.378;9.948;2024-01-15T02:49:22;15.20;;;7.70;;
77495;SDS011;66600;48.378;9.948;2024-01-15T02:49:52;16.50;;;8.10;;
77495;SDS011;66600;48.378;9.948;2024-01-15T02:50:22;16.95;;;8.07;;
77495;SDS011;66600;48.378;9.948;2024-01-15T02:50:53;17.48;;;8.43;;
77495;SDS011;66600;48.378;9.948;2024-01-15T02:51:23;18.00;;;8.07;;
77495;SDS011;66600;48.378;9.948;2024-01-15T02:51:53;17.23;;;8.82;;
77495;SDS011;66600;48.378;9.948;2024-01-15T02:52:24;15.30;;;7.95;;
77495;SDS011;66600;48.378;9.948;2024-01-15T02:52:54;15.63;;;7.88;;
77495;SDS011;66600;48.378;9.948;2024-01-15T02:53:24;19.15;;;9.00;;
77495;SDS011;66600;48.378;9.948;2024-01-15T02:53:55;18.35;;;9.15;;
77495;SDS011;66600;48.378;9.948;2024-01-15T02:54:25;18.20;;;8.80;;
77495;SDS011;66600;48.378;9.948;2024-01-15T02:54:55;19.70;;;9.10;;
77495;SDS011;66600;48.378;9.948;2024-01-15T02:55:26;18.52;;;9.18;;
77495;SDS011;66600;48.378;9.948;2024-01-15T02:55:59;17.83;;;8.40;;
77495;SDS011;66600;48.378;9.948;2024-01-15T02:56:29;18.58;;;8.40;;
77495;SDS011;66600;48.378;9.948;2024-01-15T02:56:59;16.30;;;8.52;;
77495;SDS011;66600;48.378;9.948;2024-01-15T02:57:30;15.48;;;8.05;;
77495;SDS011;66600;48.378;9.948;2024-01-15T02:58:00;18.33;;;8.40;;
77495;SDS011;66600;48.378;9.948;2024-01-15T02:58:31;17.45;;;8.02;;
77495;SDS011;66600;48.378;9.948;2024-01-15T02:59:01;16.25;;;8.60;;
77495;SDS011;66600;48.378;9.948;2024-01-15T02:59:31;16.15;;;7.78;;
77495;SDS011;66600;48.378;9.948;2024-01-15T03:00:02;17.45;;;7.32;;
77495;SDS011;66600;48.378;9.948;2024-01-15T03:00:33;18.70;;;8.18;;
77495;SDS011;66600;48.378;9.948;2024-01-15T03:01:04;17.55;;;8.45;;
77495;SDS011;66600;48.378;9.948;2024-01-15T03:01:34;15.00;;;7.53;;